Terminal Aerodrome Forecast
Issued by NWS Charleston, WV

Current Version | Previous Version | Text Only | Print | Product List | Glossary Off
Versions: 1 2 3 4 5 6 7 8 9 10 11 12 13 14 15 16 17 18 19 20 21 22 23 24

000
FTUS41 KRLX 290500
TAFHTS
TAF
KHTS 290529Z 2906/3006 00000KT 6SM BR BKN140
      TEMPO 2906/2908 4SM BR SKC
     FM290800 00000KT 6SM BR BKN050 BKN120
     FM291500 00000KT P6SM SCT050 BKN140
     FM300500 00000KT 6SM BR SCT200=

USA.gov is the U.S. government's official web portal to all federal, state and local government web resources and services.